Time;durP1;ratioP1;P1;durP2;ratioP2;P2;SDS_P1;SDS_P2;PMS_P1;PMS_P2;Temp;Humidity;BMP_temperature;BMP_pressure;BME280_temperature;BME280_humidity;BME280_pressure;Samples;Min_cycle;Max_cycle;Signal;HPM_P1;HPM_P2
2021/07/11 00:00:10;;;;;;;;;;;17.50;1.00;;;;;;5071098;28;19909;-62
2021/07/11 00:02:36;;;;;;;;;;;17.40;1.00;;;;;;5069843;28;19917;-62
2021/07/11 00:05:04;;;;;;;;;;;17.40;1.00;;;;;;5068645;28;20327;-62
2021/07/11 00:07:30;;;;;;;;;;;17.50;1.00;;;;;;5063393;28;19912;-61
2021/07/11 00:09:56;;;;;;;;;;;17.50;1.00;;;;;;5052328;28;19917;-62
2021/07/11 00:12:22;;;;;;;;;;;17.40;1.00;;;;;;5051462;28;19909;-62
2021/07/11 00:14:47;;;;;;;;;;;17.40;1.00;;;;;;5070504;28;20068;-62
2021/07/11 00:17:13;;;;;;;;;;;17.40;1.00;;;;;;5069651;28;20050;-62
2021/07/11 00:19:38;;;;;;;;;;;17.40;1.00;;;;;;5069441;28;19908;-62
2021/07/11 00:22:04;;;;;;;;;;;17.40;1.00;;;;;;5069369;28;20023;-62
2021/07/11 00:24:29;;;;;;;;;;;17.30;1.00;;;;;;5070521;28;20349;-62
2021/07/11 00:26:55;;;;;;;;;;;17.30;1.00;;;;;;5070210;28;19916;-62
2021/07/11 00:29:20;;;;;;;;;;;17.30;1.00;;;;;;5069986;28;19977;-62
2021/07/11 00:31:46;;;;;;;;;;;17.30;1.00;;;;;;5051433;28;19928;-62
2021/07/11 00:34:11;;;;;;;;;;;17.30;1.00;;;;;;5070088;28;20004;-62
2021/07/11 00:36:37;;;;;;;;;;;17.30;1.00;;;;;;5070335;28;19912;-62
2021/07/11 00:39:03;;;;;;;;;;;17.30;1.00;;;;;;5069567;28;19912;-62
2021/07/11 00:41:28;;;;;;;;;;;17.30;1.00;;;;;;5069708;28;20277;-62
2021/07/11 00:43:54;;;;;;;;;;;17.40;1.00;;;;;;5069660;28;19920;-62
2021/07/11 00:46:19;;;;;;;;;;;17.30;1.00;;;;;;5070829;28;19912;-62
2021/07/11 00:48:45;;;;;;;;;;;17.30;1.00;;;;;;5068005;28;20007;-62
2021/07/11 00:51:11;;;;;;;;;;;17.30;1.00;;;;;;5069918;28;19908;-62
2021/07/11 00:53:36;;;;;;;;;;;17.30;1.00;;;;;;5069172;28;19916;-62
2021/07/11 00:56:02;;;;;;;;;;;17.20;1.00;;;;;;5069631;28;19966;-62
2021/07/11 00:58:27;;;;;;;;;;;17.10;1.00;;;;;;5054095;28;19962;-62
2021/07/11 01:00:54;;;;;;;;;;;17.00;1.00;;;;;;5049915;28;20004;-62
2021/07/11 01:03:25;;;;;;;;;;;16.90;1.00;;;;;;5048034;28;20416;-62
2021/07/11 01:05:50;;;;;;;;;;;16.70;1.00;;;;;;5066336;28;19985;-62
2021/07/11 01:08:35;;;;;;;;;;;16.70;1.00;;;;;;5048865;28;21021;-64
2021/07/11 01:11:03;;;;;;;;;;;16.60;1.00;;;;;;5049586;28;20004;-62
2021/07/11 01:13:29;;;;;;;;;;;16.50;1.00;;;;;;5049207;28;19935;-62
2021/07/11 01:15:56;;;;;;;;;;;16.40;1.00;;;;;;5049314;28;20377;-62
2021/07/11 01:18:22;;;;;;;;;;;16.40;1.00;;;;;;5047293;28;20273;-62
2021/07/11 01:20:49;;;;;;;;;;;16.30;1.00;;;;;;5067729;28;20008;-62
2021/07/11 01:23:33;;;;;;;;;;;16.30;1.00;;;;;;5068782;28;19909;-62
2021/07/11 01:26:01;;;;;;;;;;;16.30;1.00;;;;;;5068662;28;19934;-62
2021/07/11 01:28:26;;;;;;;;;;;16.30;1.00;;;;;;5068238;28;19917;-62
2021/07/11 01:30:53;;;;;;;;;;;16.20;1.00;;;;;;5068977;28;20258;-62
2021/07/11 01:33:20;;;;;;;;;;;16.20;1.00;;;;;;5067736;28;20377;-62
2021/07/11 01:35:46;;;;;;;;;;;16.10;1.00;;;;;;5069270;28;19988;-62
2021/07/11 01:38:12;;;;;;;;;;;16.10;1.00;;;;;;5068043;28;19947;-62
2021/07/11 01:40:38;;;;;;;;;;;16.00;1.00;;;;;;5069204;28;20585;-62
2021/07/11 01:43:04;;;;;;;;;;;16.00;1.00;;;;;;5068520;28;20300;-62
2021/07/11 01:45:30;;;;;;;;;;;16.00;1.00;;;;;;5069032;28;20230;-62
2021/07/11 01:47:55;;;;;;;;;;;15.90;1.00;;;;;;5067365;28;19931;-62
2021/07/11 01:50:22;;;;;;;;;;;15.90;1.00;;;;;;5069095;28;20003;-62
2021/07/11 01:52:48;;;;;;;;;;;15.90;1.00;;;;;;5069333;28;20378;-62
2021/07/11 01:55:14;;;;;;;;;;;15.90;1.00;;;;;;5069486;28;19912;-62
2021/07/11 01:57:40;;;;;;;;;;;15.80;1.00;;;;;;5058654;28;20037;-60
2021/07/11 02:00:07;;;;;;;;;;;15.80;1.00;;;;;;5048808;28;19955;-62
2021/07/11 02:02:32;;;;;;;;;;;15.80;1.00;;;;;;5047942;28;20330;-63
2021/07/11 02:04:57;;;;;;;;;;;15.80;1.00;;;;;;5056962;28;20320;-62
2021/07/11 02:07:23;;;;;;;;;;;15.80;1.00;;;;;;5055185;28;19913;-62
2021/07/11 02:09:48;;;;;;;;;;;15.80;1.00;;;;;;5047748;28;19966;-62
2021/07/11 02:12:15;;;;;;;;;;;15.80;1.00;;;;;;5048393;28;19960;-63
2021/07/11 02:14:42;;;;;;;;;;;15.80;1.00;;;;;;5048088;28;20346;-62
2021/07/11 02:17:09;;;;;;;;;;;15.80;1.00;;;;;;5047687;28;19919;-62
2021/07/11 02:19:37;;;;;;;;;;;15.80;1.00;;;;;;5055728;28;19913;-62
2021/07/11 02:22:03;;;;;;;;;;;15.80;1.00;;;;;;5068216;28;19912;-62
2021/07/11 02:24:30;;;;;;;;;;;15.80;1.00;;;;;;5068425;28;19916;-62
2021/07/11 02:26:56;;;;;;;;;;;15.90;1.00;;;;;;5067860;28;19943;-62
2021/07/11 02:29:23;;;;;;;;;;;15.90;1.00;;;;;;5067414;28;19909;-63
2021/07/11 02:31:49;;;;;;;;;;;15.90;1.00;;;;;;5067275;28;20023;-63
2021/07/11 02:34:15;;;;;;;;;;;15.90;1.00;;;;;;5067894;28;20003;-63
2021/07/11 02:36:43;;;;;;;;;;;16.00;1.00;;;;;;5068640;28;20045;-62
2021/07/11 02:39:09;;;;;;;;;;;16.00;1.00;;;;;;5067810;28;19909;-63
2021/07/11 02:41:36;;;;;;;;;;;16.00;1.00;;;;;;5067690;28;19919;-62
2021/07/11 02:44:02;;;;;;;;;;;16.10;1.00;;;;;;5068077;28;19913;-63
2021/07/11 02:46:32;;;;;;;;;;;16.00;1.00;;;;;;5072284;28;19966;-62
2021/07/11 02:48:59;;;;;;;;;;;16.10;1.00;;;;;;5070875;28;20001;-63
2021/07/11 02:51:26;;;;;;;;;;;16.00;1.00;;;;;;5072348;28;19908;-62
2021/07/11 02:53:57;;;;;;;;;;;16.10;1.00;;;;;;5071852;28;19908;-63
2021/07/11 02:56:23;;;;;;;;;;;16.10;1.00;;;;;;5071670;28;19908;-62
2021/07/11 02:58:50;;;;;;;;;;;16.00;1.00;;;;;;5053266;28;20436;-63
2021/07/11 03:01:15;;;;;;;;;;;16.00;1.00;;;;;;5052566;28;19908;-63
2021/07/11 03:03:42;;;;;;;;;;;16.00;1.00;;;;;;5054698;28;19962;-62
2021/07/11 03:06:07;;;;;;;;;;;16.00;1.00;;;;;;5072076;28;19939;-63
2021/07/11 03:08:33;;;;;;;;;;;16.00;1.00;;;;;;5071432;28;19912;-62
2021/07/11 03:11:00;;;;;;;;;;;16.00;1.00;;;;;;5071390;28;19934;-62
2021/07/11 03:13:25;;;;;;;;;;;16.00;1.00;;;;;;5071818;28;19947;-62
2021/07/11 03:15:51;;;;;;;;;;;15.90;1.00;;;;;;5071960;28;19970;-62
2021/07/11 03:18:17;;;;;;;;;;;15.90;1.00;;;;;;5069713;28;20007;-62
2021/07/11 03:20:45;;;;;;;;;;;15.80;1.00;;;;;;5071585;28;20186;-62
2021/07/11 03:23:11;;;;;;;;;;;15.80;1.00;;;;;;5071368;28;19909;-63
2021/07/11 03:25:37;;;;;;;;;;;15.80;1.00;;;;;;5070549;28;19926;-62
2021/07/11 03:28:06;;;;;;;;;;;15.80;1.00;;;;;;5070616;28;20240;-62
2021/07/11 03:30:36;;;;;;;;;;;15.80;1.00;;;;;;5071643;28;20245;-62
2021/07/11 03:33:03;;;;;;;;;;;15.90;1.00;;;;;;5070236;28;19919;-62
2021/07/11 03:35:30;;;;;;;;;;;15.90;1.00;;;;;;5071866;28;20348;-62
2021/07/11 03:37:58;;;;;;;;;;;15.90;1.00;;;;;;5070212;28;19934;-62
2021/07/11 03:40:29;;;;;;;;;;;15.80;1.00;;;;;;5071879;28;19928;-62
2021/07/11 03:42:55;;;;;;;;;;;15.90;1.00;;;;;;5062951;28;20277;-61
2021/07/11 03:45:21;;;;;;;;;;;15.90;1.00;;;;;;5071269;28;19913;-62
2021/07/11 03:47:50;;;;;;;;;;;15.90;1.00;;;;;;5069714;28;19931;-62
2021/07/11 03:50:16;;;;;;;;;;;15.80;1.00;;;;;;5070616;28;20337;-61
2021/07/11 03:52:50;;;;;;;;;;;15.80;1.00;;;;;;5070542;28;19908;-62
2021/07/11 03:55:17;;;;;;;;;;;15.80;1.00;;;;;;5071013;28;19923;-62
2021/07/11 03:57:43;;;;;;;;;;;15.70;1.00;;;;;;5059158;28;19958;-62
2021/07/11 04:00:09;;;;;;;;;;;15.70;1.00;;;;;;5050777;28;19909;-62
2021/07/11 04:02:35;;;;;;;;;;;15.70;1.00;;;;;;5049629;28;19916;-62
2021/07/11 04:05:02;;;;;;;;;;;15.60;1.00;;;;;;5065236;28;19909;-61
2021/07/11 04:07:28;;;;;;;;;;;15.60;1.00;;;;;;5070517;28;20433;-61
2021/07/11 04:09:55;;;;;;;;;;;15.60;1.00;;;;;;5070708;28;19999;-62
2021/07/11 04:12:20;;;;;;;;;;;15.60;1.00;;;;;;5070149;28;19931;-63
2021/07/11 04:14:46;;;;;;;;;;;15.60;1.00;;;;;;5070560;28;19916;-62
2021/07/11 04:17:12;;;;;;;;;;;15.60;1.00;;;;;;5069718;28;19916;-62
2021/07/11 04:19:41;;;;;;;;;;;15.60;1.00;;;;;;5069246;28;19909;-62
2021/07/11 04:22:08;;;;;;;;;;;15.70;1.00;;;;;;5069817;28;19912;-63
2021/07/11 04:24:35;;;;;;;;;;;15.70;1.00;;;;;;5070232;28;20002;-62
2021/07/11 04:27:01;;;;;;;;;;;15.70;1.00;;;;;;5069804;28;20235;-62
2021/07/11 04:29:28;;;;;;;;;;;15.70;1.00;;;;;;5069878;28;20330;-62
2021/07/11 04:31:54;;;;;;;;;;;15.70;1.00;;;;;;5069225;28;20368;-62
2021/07/11 04:34:30;;;;;;;;;;;15.70;1.00;;;;;;5068952;28;20014;-62
2021/07/11 04:36:57;;;;;;;;;;;15.70;1.00;;;;;;5069894;28;19912;-62
2021/07/11 04:39:22;;;;;;;;;;;15.70;1.00;;;;;;5069106;28;19912;-62
2021/07/11 04:41:48;;;;;;;;;;;15.70;1.00;;;;;;5069509;28;20226;-62
2021/07/11 04:44:14;;;;;;;;;;;15.70;1.00;;;;;;5069422;28;19913;-62
2021/07/11 04:46:39;;;;;;;;;;;15.70;1.00;;;;;;5069711;28;19912;-62
2021/07/11 04:49:05;;;;;;;;;;;15.70;1.00;;;;;;5068505;28;19966;-62
2021/07/11 04:51:31;;;;;;;;;;;15.70;1.00;;;;;;5069954;28;19931;-63
2021/07/11 04:53:57;;;;;;;;;;;15.80;1.00;;;;;;5069628;28;19916;-63
2021/07/11 04:56:23;;;;;;;;;;;15.90;1.00;;;;;;5069417;28;19912;-62
2021/07/11 04:58:48;;;;;;;;;;;15.90;1.00;;;;;;5050954;28;19909;-62
2021/07/11 05:01:14;;;;;;;;;;;16.00;1.00;;;;;;5049551;28;20011;-62
2021/07/11 05:03:39;;;;;;;;;;;16.00;1.00;;;;;;5047951;28;19913;-63
2021/07/11 05:06:05;;;;;;;;;;;16.00;1.00;;;;;;5066239;28;19928;-63
2021/07/11 05:08:30;;;;;;;;;;;16.20;1.00;;;;;;5068173;28;19908;-63
2021/07/11 05:10:56;;;;;;;;;;;16.20;1.00;;;;;;5068138;28;19908;-62
2021/07/11 05:13:21;;;;;;;;;;;16.20;1.00;;;;;;5069596;28;19921;-62
2021/07/11 05:15:47;;;;;;;;;;;16.30;1.00;;;;;;5069730;28;20357;-63
2021/07/11 05:18:12;;;;;;;;;;;16.40;1.00;;;;;;5066058;28;19913;-62
2021/07/11 05:20:38;;;;;;;;;;;16.40;1.00;;;;;;5069259;28;19916;-63
2021/07/11 05:23:03;;;;;;;;;;;16.40;1.00;;;;;;5069255;28;20012;-63
2021/07/11 05:25:32;;;;;;;;;;;16.40;1.00;;;;;;5055731;28;19913;-62
2021/07/11 05:27:59;;;;;;;;;;;16.40;1.00;;;;;;5048635;28;19908;-62
2021/07/11 05:30:24;;;;;;;;;;;16.40;1.00;;;;;;5049097;28;19909;-61
2021/07/11 05:32:50;;;;;;;;;;;16.50;1.00;;;;;;5048851;28;19909;-62
2021/07/11 05:35:15;;;;;;;;;;;16.50;1.00;;;;;;5049382;28;19913;-62
2021/07/11 05:37:41;;;;;;;;;;;16.50;1.00;;;;;;5048683;28;19916;-61
2021/07/11 05:40:06;;;;;;;;;;;16.50;1.00;;;;;;5049507;28;20264;-62
2021/07/11 05:42:32;;;;;;;;;;;16.50;1.00;;;;;;5049244;28;19913;-62
2021/07/11 05:44:57;;;;;;;;;;;16.50;1.00;;;;;;5049402;28;20381;-62
2021/07/11 05:47:23;;;;;;;;;;;16.50;1.00;;;;;;5045964;28;19917;-62
2021/07/11 05:49:49;;;;;;;;;;;16.50;1.00;;;;;;5048530;28;19916;-62
2021/07/11 05:52:14;;;;;;;;;;;16.60;1.00;;;;;;5049289;28;19908;-62
2021/07/11 05:54:40;;;;;;;;;;;16.60;1.00;;;;;;5049322;28;20391;-62
2021/07/11 05:57:05;;;;;;;;;;;16.60;1.00;;;;;;5052398;28;20035;-61
2021/07/11 05:59:31;;;;;;;;;;;16.60;1.00;;;;;;5068407;28;19919;-62
2021/07/11 06:01:56;;;;;;;;;;;16.50;1.00;;;;;;5068070;28;20052;-62
2021/07/11 06:04:22;;;;;;;;;;;16.50;1.00;;;;;;5058405;28;19909;-62
2021/07/11 06:06:47;;;;;;;;;;;16.50;1.00;;;;;;5048912;28;20377;-62
2021/07/11 06:09:12;;;;;;;;;;;16.50;1.00;;;;;;5066212;28;19919;-62
2021/07/11 06:11:39;;;;;;;;;;;16.50;1.00;;;;;;5068485;28;20310;-62
2021/07/11 06:14:05;;;;;;;;;;;16.50;1.00;;;;;;5045685;28;19978;-60
2021/07/11 06:16:30;;;;;;;;;;;16.60;1.00;;;;;;5067379;28;19916;-62
2021/07/11 06:18:56;;;;;;;;;;;16.60;1.00;;;;;;5066451;28;20015;-62
2021/07/11 06:21:21;;;;;;;;;;;16.60;1.00;;;;;;5072722;28;19933;-62
2021/07/11 06:23:47;;;;;;;;;;;16.60;1.00;;;;;;5072582;28;19988;-62
2021/07/11 06:26:13;;;;;;;;;;;16.70;1.00;;;;;;5072288;28;19916;-62
2021/07/11 06:28:38;;;;;;;;;;;16.80;1.00;;;;;;5071818;28;19969;-63
2021/07/11 06:31:04;;;;;;;;;;;17.00;1.00;;;;;;5072378;28;19912;-62
2021/07/11 06:33:29;;;;;;;;;;;17.10;1.00;;;;;;5070647;28;20452;-62
2021/07/11 06:35:55;;;;;;;;;;;17.40;1.00;;;;;;5070039;28;19969;-62
2021/07/11 06:38:20;;;;;;;;;;;17.60;1.00;;;;;;5060123;28;20285;-62
2021/07/11 06:40:46;;;;;;;;;;;17.80;1.00;;;;;;5062728;28;19947;-64
2021/07/11 06:43:11;;;;;;;;;;;17.90;1.00;;;;;;5061373;28;19920;-62
2021/07/11 06:45:37;;;;;;;;;;;18.00;1.00;;;;;;5061539;28;20383;-61
2021/07/11 06:48:03;;;;;;;;;;;18.10;1.00;;;;;;5060224;28;19909;-62
2021/07/11 06:50:28;;;;;;;;;;;18.20;1.00;;;;;;5060960;28;20314;-62
2021/07/11 06:52:54;;;;;;;;;;;18.40;1.00;;;;;;5059763;28;20353;-61
2021/07/11 06:55:19;;;;;;;;;;;18.60;1.00;;;;;;5062066;28;19916;-64
2021/07/11 06:57:45;;;;;;;;;;;18.80;99.90;;;;;;5060512;28;19989;-64
2021/07/11 07:00:11;;;;;;;;;;;19.10;99.90;;;;;;5059553;28;19909;-64
2021/07/11 07:02:37;;;;;;;;;;;19.40;62.10;;;;;;5058081;28;19916;-64
2021/07/11 07:05:03;;;;;;;;;;;;;;;;;;5059326;28;19920;-64
2021/07/11 07:07:29;;;;;;;;;;;20.60;1.00;;;;;;5058802;28;20328;-61
2021/07/11 07:09:55;;;;;;;;;;;;;;;;;;5057420;28;19916;-61
2021/07/11 07:12:20;;;;;;;;;;;21.80;99.90;;;;;;5058748;28;19916;-61
2021/07/11 07:14:46;;;;;;;;;;;22.30;1.00;;;;;;5056916;28;20421;-63
2021/07/11 07:17:11;;;;;;;;;;;22.80;99.90;;;;;;5056061;28;19912;-63
2021/07/11 07:19:37;;;;;;;;;;;23.00;1.00;;;;;;5058597;28;19920;-64
2021/07/11 07:22:02;;;;;;;;;;;;;;;;;;5058596;28;19973;-64
2021/07/11 07:24:28;;;;;;;;;;;23.50;1.00;;;;;;5058300;28;20001;-64
2021/07/11 07:26:53;;;;;;;;;;;23.70;1.00;;;;;;5057890;28;20374;-62
2021/07/11 07:29:19;;;;;;;;;;;24.00;1.00;;;;;;5055401;28;20314;-63
2021/07/11 07:31:47;;;;;;;;;;;24.20;1.00;;;;;;5057154;28;20403;-64
2021/07/11 07:34:13;;;;;;;;;;;24.50;1.00;;;;;;5077531;22;19929;-63
2021/07/11 07:36:38;;;;;;;;;;;24.70;1.00;;;;;;5058147;28;19909;-60
2021/07/11 07:39:04;;;;;;;;;;;24.80;1.00;;;;;;5062381;28;19913;-60
2021/07/11 07:41:30;;;;;;;;;;;;;;;;;;5069262;28;19919;-60
2021/07/11 07:43:55;;;;;;;;;;;25.80;99.90;;;;;;5049950;28;19909;-62
2021/07/11 07:46:21;;;;;;;;;;;26.30;99.90;;;;;;5065287;28;20007;-61
2021/07/11 07:48:47;;;;;;;;;;;27.30;1.00;;;;;;5060577;28;19955;-61
2021/07/11 07:51:13;;;;;;;;;;;28.40;1.00;;;;;;5060203;28;19954;-58
2021/07/11 07:53:38;;;;;;;;;;;29.60;99.90;;;;;;5062787;28;19983;-60
2021/07/11 07:56:04;;;;;;;;;;;30.20;99.90;;;;;;5063270;28;19909;-58
2021/07/11 07:58:29;;;;;;;;;;;31.50;99.90;;;;;;5060605;28;19931;-60
2021/07/11 08:00:55;;;;;;;;;;;32.30;99.90;;;;;;5056691;28;20002;-60
2021/07/11 08:03:20;;;;;;;;;;;32.70;99.90;;;;;;5058884;28;19919;-61
2021/07/11 08:05:46;;;;;;;;;;;33.20;99.90;;;;;;5063124;28;19913;-61
2021/07/11 08:08:12;;;;;;;;;;;34.40;99.90;;;;;;5055099;28;20296;-59
2021/07/11 08:10:37;;;;;;;;;;;36.20;99.90;;;;;;5057003;28;20289;-62
2021/07/11 08:13:03;;;;;;;;;;;37.30;99.90;;;;;;5052600;28;20005;-60
2021/07/11 08:15:29;;;;;;;;;;;38.90;99.90;;;;;;5050331;28;19916;-60
2021/07/11 08:17:54;;;;;;;;;;;39.10;99.90;;;;;;5054003;28;19970;-59
2021/07/11 08:20:21;;;;;;;;;;;37.60;99.90;;;;;;5051287;28;20266;-59
2021/07/11 08:22:46;;;;;;;;;;;36.20;99.90;;;;;;5053595;28;20269;-59
2021/07/11 08:25:12;;;;;;;;;;;36.60;99.90;;;;;;5061657;28;19918;-59
2021/07/11 08:27:39;;;;;;;;;;;36.30;99.90;;;;;;5040273;28;19928;-62
2021/07/11 08:30:06;;;;;;;;;;;35.60;99.90;;;;;;5069279;28;19958;-60
2021/07/11 08:32:32;;;;;;;;;;;36.70;99.90;;;;;;5066016;28;19912;-58
2021/07/11 08:34:57;;;;;;;;;;;38.00;99.90;;;;;;5057053;28;20028;-59
2021/07/11 08:37:23;;;;;;;;;;;37.70;99.90;;;;;;5053230;28;19972;-61
2021/07/11 08:39:48;;;;;;;;;;;38.40;99.90;;;;;;5050137;28;19916;-59
2021/07/11 08:42:14;;;;;;;;;;;38.40;99.90;;;;;;5057809;28;20329;-64
2021/07/11 08:44:39;;;;;;;;;;;38.40;99.90;;;;;;5055502;28;19912;-62
2021/07/11 08:47:05;;;;;;;;;;;37.30;99.90;;;;;;5051258;28;20000;-58
2021/07/11 08:49:30;;;;;;;;;;;35.80;99.90;;;;;;5057069;28;20291;-60
2021/07/11 08:51:57;;;;;;;;;;;34.30;99.90;;;;;;5058554;28;19909;-60
2021/07/11 08:54:23;;;;;;;;;;;34.20;99.90;;;;;;5055884;28;19912;-61
2021/07/11 08:56:48;;;;;;;;;;;34.10;99.90;;;;;;5055524;28;19913;-60
2021/07/11 08:59:14;;;;;;;;;;;34.10;99.90;;;;;;5063032;28;19920;-60
2021/07/11 09:01:39;;;;;;;;;;;34.90;99.90;;;;;;5066845;28;19984;-59
2021/07/11 09:04:09;;;;;;;;;;;34.70;99.90;;;;;;5057714;28;20293;-60
2021/07/11 09:06:38;;;;;;;;;;;33.60;99.90;;;;;;5058084;28;20001;-60
2021/07/11 09:09:03;;;;;;;;;;;32.40;99.90;;;;;;5045097;28;19985;-58
2021/07/11 09:11:29;;;;;;;;;;;30.90;99.90;;;;;;5058456;28;20435;-61
2021/07/11 09:13:54;;;;;;;;;;;29.80;99.90;;;;;;5063970;28;19916;-57
2021/07/11 09:16:20;;;;;;;;;;;28.90;99.90;;;;;;5055906;28;20083;-58
2021/07/11 09:18:51;;;;;;;;;;;28.20;99.90;;;;;;5058072;28;19913;-58
2021/07/11 09:21:16;;;;;;;;;;;27.80;99.90;;;;;;5053497;28;19916;-59
2021/07/11 09:23:43;;;;;;;;;;;27.20;99.90;;;;;;5058239;28;19924;-58
2021/07/11 09:26:09;;;;;;;;;;;26.60;99.90;;;;;;5059407;28;20345;-59
2021/07/11 09:28:36;;;;;;;;;;;25.90;99.90;;;;;;5059937;28;19909;-62
2021/07/11 09:31:02;;;;;;;;;;;25.40;99.90;;;;;;5057707;28;19916;-58
2021/07/11 09:33:27;;;;;;;;;;;24.60;99.90;;;;;;5058790;28;19939;-60
2021/07/11 09:36:02;;;;;;;;;;;24.20;99.90;;;;;;5057193;28;19916;-57
2021/07/11 09:38:28;;;;;;;;;;;23.70;99.90;;;;;;5057260;28;20007;-58
2021/07/11 09:40:53;;;;;;;;;;;23.40;99.90;;;;;;5054257;28;20008;-58
2021/07/11 09:43:19;;;;;;;;;;;23.20;99.90;;;;;;5057090;28;19909;-60
2021/07/11 09:45:45;;;;;;;;;;;23.00;99.90;;;;;;5063300;28;19991;-58
2021/07/11 09:48:11;;;;;;;;;;;22.60;99.90;;;;;;5054432;28;20325;-59
2021/07/11 09:50:36;;;;;;;;;;;22.40;99.90;;;;;;5052677;28;19919;-60
2021/07/11 09:53:02;;;;;;;;;;;22.10;99.90;;;;;;5060163;28;19912;-59
2021/07/11 09:55:31;;;;;;;;;;;21.80;99.90;;;;;;5050682;28;20006;-59
2021/07/11 09:57:59;;;;;;;;;;;21.70;99.90;;;;;;5053672;28;20011;-55
2021/07/11 10:00:24;;;;;;;;;;;21.70;99.90;;;;;;5048848;28;19979;-60
2021/07/11 10:02:51;;;;;;;;;;;21.80;1.00;;;;;;5048123;28;19940;-60
2021/07/11 10:05:17;;;;;;;;;;;22.70;99.90;;;;;;5048482;28;19923;-62
2021/07/11 10:07:43;;;;;;;;;;;23.50;99.90;;;;;;5047559;28;19909;-64
2021/07/11 10:10:10;;;;;;;;;;;23.90;99.90;;;;;;5048543;28;19909;-63
2021/07/11 10:12:36;;;;;;;;;;;24.20;99.90;;;;;;5047823;28;19909;-63
2021/07/11 10:15:02;;;;;;;;;;;24.10;99.90;;;;;;5052714;28;19957;-61
2021/07/11 10:17:28;;;;;;;;;;;24.20;99.90;;;;;;5047840;28;20376;-63
2021/07/11 10:19:54;;;;;;;;;;;24.60;99.90;;;;;;5047763;28;20004;-63
2021/07/11 10:22:20;;;;;;;;;;;24.40;99.90;;;;;;5048316;28;20350;-59
2021/07/11 10:24:47;;;;;;;;;;;24.90;99.90;;;;;;5048172;28;19963;-61
2021/07/11 10:27:26;;;;;;;;;;;25.30;99.90;;;;;;5048034;28;19913;-63
2021/07/11 10:29:53;;;;;;;;;;;25.90;99.90;;;;;;5048032;28;19920;-63
2021/07/11 10:32:21;;;;;;;;;;;26.00;99.90;;;;;;5046222;28;19912;-61
2021/07/11 10:34:46;;;;;;;;;;;25.40;99.90;;;;;;5058083;28;19917;-63
2021/07/11 10:37:13;;;;;;;;;;;24.80;99.90;;;;;;5061134;28;19917;-63
2021/07/11 10:39:38;;;;;;;;;;;23.90;99.90;;;;;;5053325;28;19913;-62
2021/07/11 10:42:04;;;;;;;;;;;23.30;99.90;;;;;;5055532;28;19915;-60
2021/07/11 10:44:29;;;;;;;;;;;22.90;1.00;;;;;;5062548;28;19915;-58
2021/07/11 10:46:56;;;;;;;;;;;22.40;1.00;;;;;;5051078;28;20381;-57
2021/07/11 10:49:27;;;;;;;;;;;22.00;1.00;;;;;;5056061;28;20348;-60
2021/07/11 10:51:54;;;;;;;;;;;21.60;99.90;;;;;;5055744;28;20038;-58
2021/07/11 10:54:26;;;;;;;;;;;21.30;99.90;;;;;;5050365;28;20014;-55
2021/07/11 10:56:52;;;;;;;;;;;21.20;40.90;;;;;;5050931;28;19919;-59
2021/07/11 10:59:27;;;;;;;;;;;21.10;99.90;;;;;;5063339;28;20377;-57
2021/07/11 11:01:54;;;;;;;;;;;21.10;1.00;;;;;;5048422;28;19909;-57
2021/07/11 11:04:20;;;;;;;;;;;21.20;1.00;;;;;;5048322;28;19909;-60
2021/07/11 11:06:46;;;;;;;;;;;21.40;1.00;;;;;;5051197;28;20329;-57
2021/07/11 11:09:11;;;;;;;;;;;21.50;99.90;;;;;;5057836;28;19944;-58
2021/07/11 11:11:37;;;;;;;;;;;21.70;93.90;;;;;;5059020;28;19948;-56
2021/07/11 11:14:03;;;;;;;;;;;22.00;6.30;;;;;;5069866;28;19942;-58
2021/07/11 11:16:39;;;;;;;;;;;22.30;1.00;;;;;;5060289;28;19978;-58
2021/07/11 11:19:12;;;;;;;;;;;22.50;1.00;;;;;;5060036;28;19916;-55
2021/07/11 11:21:37;;;;;;;;;;;22.90;1.00;;;;;;5064557;28;19909;-59
2021/07/11 11:24:03;;;;;;;;;;;23.60;99.90;;;;;;5069339;28;20283;-57
2021/07/11 11:26:29;;;;;;;;;;;24.30;99.90;;;;;;5066330;28;19909;-61
2021/07/11 11:28:56;;;;;;;;;;;25.40;99.90;;;;;;5051272;28;20265;-58
2021/07/11 11:31:22;;;;;;;;;;;;;;;;;;5051917;28;19919;-59
2021/07/11 11:33:53;;;;;;;;;;;28.60;1.00;;;;;;5054134;28;19928;-59
2021/07/11 11:36:21;;;;;;;;;;;29.40;99.90;;;;;;5069760;28;19946;-57
2021/07/11 11:38:47;;;;;;;;;;;29.90;99.90;;;;;;5066256;28;19909;-59
2021/07/11 11:41:14;;;;;;;;;;;29.90;99.90;;;;;;5062691;28;20257;-59
2021/07/11 11:43:40;;;;;;;;;;;29.70;99.90;;;;;;5068504;28;19916;-59
2021/07/11 11:46:05;;;;;;;;;;;29.40;99.90;;;;;;5066029;28;19908;-58
2021/07/11 11:48:31;;;;;;;;;;;29.00;99.90;;;;;;5055586;28;19912;-60
2021/07/11 11:51:01;;;;;;;;;;;28.30;99.90;;;;;;5053634;28;19939;-58
2021/07/11 11:53:26;;;;;;;;;;;27.50;99.90;;;;;;5058677;28;19914;-60
2021/07/11 11:55:54;;;;;;;;;;;27.00;99.90;;;;;;5050892;28;20296;-57
2021/07/11 11:58:26;;;;;;;;;;;26.60;99.90;;;;;;5055238;28;20369;-60
2021/07/11 12:01:01;;;;;;;;;;;26.50;99.90;;;;;;5071336;28;20446;-58
2021/07/11 12:03:27;;;;;;;;;;;26.60;99.90;;;;;;5065594;28;20046;-58
2021/07/11 12:05:52;;;;;;;;;;;26.80;99.90;;;;;;5054411;28;20007;-58
2021/07/11 12:08:18;;;;;;;;;;;26.80;99.90;;;;;;5052533;28;19913;-60
2021/07/11 12:10:44;;;;;;;;;;;26.90;99.90;;;;;;5058927;28;19913;-61
2021/07/11 12:13:10;;;;;;;;;;;26.80;99.90;;;;;;5050767;28;20037;-58
2021/07/11 12:15:36;;;;;;;;;;;26.70;99.90;;;;;;5051203;28;20052;-57
2021/07/11 12:18:11;;;;;;;;;;;26.40;99.90;;;;;;5049829;28;19912;-59
2021/07/11 12:20:37;;;;;;;;;;;26.20;99.90;;;;;;5050461;28;19909;-58
2021/07/11 12:23:08;;;;;;;;;;;26.00;99.90;;;;;;5048917;28;19916;-59
2021/07/11 12:25:37;;;;;;;;;;;25.90;99.90;;;;;;5047496;28;19909;-57
2021/07/11 12:28:03;;;;;;;;;;;25.70;99.90;;;;;;5057521;28;20350;-58
2021/07/11 12:30:33;;;;;;;;;;;25.40;99.90;;;;;;5034377;28;20131;-59
2021/07/11 12:32:59;;;;;;;;;;;25.30;99.90;;;;;;5053641;28;19917;-60
2021/07/11 12:35:26;;;;;;;;;;;25.30;99.90;;;;;;5060929;28;19954;-60
2021/07/11 12:37:53;;;;;;;;;;;25.20;99.90;;;;;;5061836;28;19909;-59
2021/07/11 12:40:19;;;;;;;;;;;25.20;99.90;;;;;;5054219;28;20281;-59
2021/07/11 12:42:45;;;;;;;;;;;25.30;99.90;;;;;;5059105;28;19995;-59
2021/07/11 12:45:17;;;;;;;;;;;25.30;99.90;;;;;;5053062;28;20048;-59
2021/07/11 12:47:50;;;;;;;;;;;25.40;99.90;;;;;;5064414;28;19931;-58
2021/07/11 12:50:16;;;;;;;;;;;25.50;99.90;;;;;;5057518;28;20016;-59
2021/07/11 12:52:51;;;;;;;;;;;25.80;99.90;;;;;;5059945;28;20006;-61
2021/07/11 12:55:17;;;;;;;;;;;26.00;99.90;;;;;;5066693;28;19924;-61
2021/07/11 12:57:42;;;;;;;;;;;26.40;99.90;;;;;;5055596;28;19919;-59
2021/07/11 13:00:09;;;;;;;;;;;26.60;99.90;;;;;;5034321;28;19948;-59
2021/07/11 13:02:34;;;;;;;;;;;26.60;99.90;;;;;;5064333;28;19915;-60
2021/07/11 13:05:01;;;;;;;;;;;26.60;99.90;;;;;;5059519;28;19998;-62
2021/07/11 13:07:28;;;;;;;;;;;26.70;99.90;;;;;;5059793;28;19909;-59
2021/07/11 13:09:54;;;;;;;;;;;26.70;99.90;;;;;;5056230;28;19909;-62
2021/07/11 13:12:20;;;;;;;;;;;26.80;99.90;;;;;;5059584;28;20336;-58
2021/07/11 13:14:51;;;;;;;;;;;27.20;99.90;;;;;;5061496;28;19908;-62
2021/07/11 13:17:17;;;;;;;;;;;27.20;99.90;;;;;;5046347;28;19913;-58
2021/07/11 13:19:42;;;;;;;;;;;27.30;99.90;;;;;;5047831;28;19920;-60
2021/07/11 13:22:07;;;;;;;;;;;27.20;99.90;;;;;;5049107;28;19920;-61
2021/07/11 13:24:33;;;;;;;;;;;27.40;99.90;;;;;;5060678;28;20246;-58
2021/07/11 13:26:58;;;;;;;;;;;27.30;99.90;;;;;;5049046;28;19919;-62
2021/07/11 13:29:24;;;;;;;;;;;27.30;99.90;;;;;;5051308;28;19999;-58
2021/07/11 13:31:49;;;;;;;;;;;27.10;99.90;;;;;;5033591;28;19913;-58
2021/07/11 13:34:15;;;;;;;;;;;27.10;99.90;;;;;;5051934;28;20212;-57
2021/07/11 13:36:41;;;;;;;;;;;27.00;99.90;;;;;;5056338;28;19948;-59
2021/07/11 13:39:06;;;;;;;;;;;26.80;99.90;;;;;;5054665;28;19978;-60
2021/07/11 13:41:31;;;;;;;;;;;26.70;99.90;;;;;;5054208;28;20623;-61
2021/07/11 13:43:57;;;;;;;;;;;26.70;99.90;;;;;;5028050;28;19916;-56
2021/07/11 13:46:24;;;;;;;;;;;26.90;99.90;;;;;;5048263;28;19962;-60
2021/07/11 13:48:49;;;;;;;;;;;27.10;99.90;;;;;;5048842;28;19921;-57
2021/07/11 13:51:15;;;;;;;;;;;27.20;99.90;;;;;;5049071;28;20000;-58
2021/07/11 13:53:40;;;;;;;;;;;27.30;99.90;;;;;;5049125;28;19928;-59
2021/07/11 13:56:06;;;;;;;;;;;27.30;99.90;;;;;;5048742;28;19931;-60
2021/07/11 13:58:31;;;;;;;;;;;27.00;99.90;;;;;;5049343;28;19947;-58
2021/07/11 14:00:57;;;;;;;;;;;27.00;99.90;;;;;;5048926;28;19908;-58
2021/07/11 14:03:22;;;;;;;;;;;26.70;99.90;;;;;;5048614;28;19967;-58
2021/07/11 14:05:48;;;;;;;;;;;26.70;99.90;;;;;;5048152;28;19909;-58
2021/07/11 14:08:13;;;;;;;;;;;26.50;99.90;;;;;;5048116;28;20328;-59
2021/07/11 14:10:39;;;;;;;;;;;26.60;99.90;;;;;;5048830;28;19992;-58
2021/07/11 14:13:04;;;;;;;;;;;26.60;99.90;;;;;;5049125;28;20006;-59
2021/07/11 14:15:30;;;;;;;;;;;26.50;99.90;;;;;;5048748;28;19951;-58
2021/07/11 14:17:55;;;;;;;;;;;26.20;99.90;;;;;;5048725;28;19909;-58
2021/07/11 14:20:21;;;;;;;;;;;26.00;99.90;;;;;;5049375;28;20374;-58